sensor_id;sensor_type;location;lat;lon;timestamp;P1;durP1;ratioP1;P2;durP2;ratioP2
77158;SDS011;66129;45.890;13.714;2024-01-06T00:00:20;23.63;;;11.10;;
77158;SDS011;66129;45.890;13.714;2024-01-06T00:02:48;13.68;;;7.13;;
77158;SDS011;66129;45.890;13.714;2024-01-06T00:05:14;15.20;;;6.75;;
77158;SDS011;66129;45.890;13.714;2024-01-06T00:07:39;10.55;;;5.45;;
77158;SDS011;66129;45.890;13.714;2024-01-06T00:10:05;7.47;;;4.47;;
77158;SDS011;66129;45.890;13.714;2024-01-06T00:12:31;8.30;;;5.07;;
77158;SDS011;66129;45.890;13.714;2024-01-06T00:14:57;12.52;;;5.25;;
77158;SDS011;66129;45.890;13.714;2024-01-06T00:17:22;14.43;;;5.93;;
77158;SDS011;66129;45.890;13.714;2024-01-06T00:19:48;6.38;;;3.17;;
77158;SDS011;66129;45.890;13.714;2024-01-06T00:22:16;8.88;;;4.50;;
77158;SDS011;66129;45.890;13.714;2024-01-06T00:24:44;6.80;;;4.07;;
77158;SDS011;66129;45.890;13.714;2024-01-06T00:27:10;7.88;;;4.57;;
77158;SDS011;66129;45.890;13.714;2024-01-06T00:29:35;10.57;;;4.05;;
77158;SDS011;66129;45.890;13.714;2024-01-06T00:32:01;6.25;;;3.53;;
77158;SDS011;66129;45.890;13.714;2024-01-06T00:34:26;8.65;;;3.97;;
77158;SDS011;66129;45.890;13.714;2024-01-06T00:36:52;6.60;;;3.97;;
77158;SDS011;66129;45.890;13.714;2024-01-06T00:39:18;11.35;;;5.03;;
77158;SDS011;66129;45.890;13.714;2024-01-06T00:41:45;11.25;;;4.03;;
77158;SDS011;66129;45.890;13.714;2024-01-06T00:44:11;8.50;;;3.67;;
77158;SDS011;66129;45.890;13.714;2024-01-06T00:46:36;11.20;;;4.72;;
77158;SDS011;66129;45.890;13.714;2024-01-06T00:49:03;12.90;;;4.60;;
77158;SDS011;66129;45.890;13.714;2024-01-06T00:51:28;7.93;;;3.08;;
77158;SDS011;66129;45.890;13.714;2024-01-06T00:53:54;9.13;;;4.15;;
77158;SDS011;66129;45.890;13.714;2024-01-06T00:56:22;5.95;;;3.55;;
77158;SDS011;66129;45.890;13.714;2024-01-06T00:58:47;7.20;;;3.85;;
77158;SDS011;66129;45.890;13.714;2024-01-06T01:01:13;9.90;;;3.38;;
77158;SDS011;66129;45.890;13.714;2024-01-06T01:03:38;4.28;;;2.33;;
77158;SDS011;66129;45.890;13.714;2024-01-06T01:06:04;8.45;;;2.72;;
77158;SDS011;66129;45.890;13.714;2024-01-06T01:08:29;6.82;;;2.97;;
77158;SDS011;66129;45.890;13.714;2024-01-06T01:10:56;4.88;;;2.60;;
77158;SDS011;66129;45.890;13.714;2024-01-06T01:13:22;3.72;;;2.05;;
77158;SDS011;66129;45.890;13.714;2024-01-06T01:15:48;5.25;;;2.78;;
77158;SDS011;66129;45.890;13.714;2024-01-06T01:18:13;6.13;;;2.30;;
77158;SDS011;66129;45.890;13.714;2024-01-06T01:20:39;5.13;;;2.35;;
77158;SDS011;66129;45.890;13.714;2024-01-06T01:23:07;3.20;;;2.30;;
77158;SDS011;66129;45.890;13.714;2024-01-06T01:25:32;6.40;;;3.70;;
77158;SDS011;66129;45.890;13.714;2024-01-06T01:27:58;6.47;;;2.58;;
77158;SDS011;66129;45.890;13.714;2024-01-06T01:30:23;4.88;;;2.58;;
77158;SDS011;66129;45.890;13.714;2024-01-06T01:32:49;7.15;;;2.53;;
77158;SDS011;66129;45.890;13.714;2024-01-06T01:35:14;4.68;;;1.52;;
77158;SDS011;66129;45.890;13.714;2024-01-06T01:37:40;4.25;;;2.47;;
77158;SDS011;66129;45.890;13.714;2024-01-06T01:40:06;2.70;;;1.52;;
77158;SDS011;66129;45.890;13.714;2024-01-06T01:42:32;6.28;;;2.08;;
77158;SDS011;66129;45.890;13.714;2024-01-06T01:44:58;4.10;;;1.90;;
77158;SDS011;66129;45.890;13.714;2024-01-06T01:47:24;6.63;;;2.58;;
77158;SDS011;66129;45.890;13.714;2024-01-06T01:49:50;6.47;;;2.20;;
77158;SDS011;66129;45.890;13.714;2024-01-06T01:52:15;5.30;;;2.10;;
77158;SDS011;66129;45.890;13.714;2024-01-06T01:54:42;6.57;;;1.98;;
77158;SDS011;66129;45.890;13.714;2024-01-06T01:57:10;3.33;;;1.80;;
77158;SDS011;66129;45.890;13.714;2024-01-06T01:59:37;2.72;;;1.40;;
77158;SDS011;66129;45.890;13.714;2024-01-06T02:02:03;5.20;;;2.00;;
77158;SDS011;66129;45.890;13.714;2024-01-06T02:04:29;4.47;;;1.90;;
77158;SDS011;66129;45.890;13.714;2024-01-06T02:06:54;5.47;;;2.40;;
77158;SDS011;66129;45.890;13.714;2024-01-06T02:09:20;3.80;;;1.92;;
77158;SDS011;66129;45.890;13.714;2024-01-06T02:11:48;8.13;;;1.90;;
77158;SDS011;66129;45.890;13.714;2024-01-06T02:14:13;4.05;;;2.00;;
77158;SDS011;66129;45.890;13.714;2024-01-06T02:16:39;4.55;;;2.22;;
77158;SDS011;66129;45.890;13.714;2024-01-06T02:19:04;2.70;;;1.73;;
77158;SDS011;66129;45.890;13.714;2024-01-06T02:21:33;5.63;;;1.73;;
77158;SDS011;66129;45.890;13.714;2024-01-06T02:24:00;4.05;;;2.15;;
77158;SDS011;66129;45.890;13.714;2024-01-06T02:26:26;5.68;;;2.33;;
77158;SDS011;66129;45.890;13.714;2024-01-06T02:28:51;6.18;;;2.17;;
77158;SDS011;66129;45.890;13.714;2024-01-06T02:31:17;3.10;;;2.28;;
77158;SDS011;66129;45.890;13.714;2024-01-06T02:33:42;4.45;;;1.92;;
77158;SDS011;66129;45.890;13.714;2024-01-06T02:36:08;6.07;;;2.20;;
77158;SDS011;66129;45.890;13.714;2024-01-06T02:38:33;5.80;;;2.00;;
77158;SDS011;66129;45.890;13.714;2024-01-06T02:40:59;3.33;;;1.95;;
77158;SDS011;66129;45.890;13.714;2024-01-06T02:43:24;6.95;;;1.92;;
77158;SDS011;66129;45.890;13.714;2024-01-06T02:45:50;3.55;;;2.05;;
77158;SDS011;66129;45.890;13.714;2024-01-06T02:48:15;8.05;;;2.80;;
77158;SDS011;66129;45.890;13.714;2024-01-06T02:50:41;6.97;;;2.65;;
77158;SDS011;66129;45.890;13.714;2024-01-06T02:53:06;6.55;;;2.63;;
77158;SDS011;66129;45.890;13.714;2024-01-06T02:55:32;4.40;;;2.42;;
77158;SDS011;66129;45.890;13.714;2024-01-06T02:57:57;6.78;;;2.47;;
77158;SDS011;66129;45.890;13.714;2024-01-06T03:00:22;5.03;;;2.72;;
77158;SDS011;66129;45.890;13.714;2024-01-06T03:02:49;4.30;;;2.22;;
77158;SDS011;66129;45.890;13.714;2024-01-06T03:05:15;6.63;;;2.60;;
77158;SDS011;66129;45.890;13.714;2024-01-06T03:07:42;6.95;;;3.28;;
77158;SDS011;66129;45.890;13.714;2024-01-06T03:10:07;8.18;;;3.45;;
77158;SDS011;66129;45.890;13.714;2024-01-06T03:12:33;5.13;;;2.95;;
77158;SDS011;66129;45.890;13.714;2024-01-06T03:14:58;7.22;;;3.30;;
77158;SDS011;66129;45.890;13.714;2024-01-06T03:17:24;5.82;;;2.45;;
77158;SDS011;66129;45.890;13.714;2024-01-06T03:19:49;6.07;;;2.95;;
77158;SDS011;66129;45.890;13.714;2024-01-06T03:22:15;4.97;;;2.63;;
77158;SDS011;66129;45.890;13.714;2024-01-06T03:24:40;6.78;;;3.10;;
77158;SDS011;66129;45.890;13.714;2024-01-06T03:27:06;10.05;;;3.05;;
77158;SDS011;66129;45.890;13.714;2024-01-06T03:29:31;8.32;;;3.50;;
77158;SDS011;66129;45.890;13.714;2024-01-06T03:31:57;4.93;;;2.90;;
77158;SDS011;66129;45.890;13.714;2024-01-06T03:34:22;7.65;;;3.72;;
77158;SDS011;66129;45.890;13.714;2024-01-06T03:36:48;4.50;;;3.03;;
77158;SDS011;66129;45.890;13.714;2024-01-06T03:39:13;6.38;;;3.72;;
77158;SDS011;66129;45.890;13.714;2024-01-06T03:41:39;7.15;;;3.40;;
77158;SDS011;66129;45.890;13.714;2024-01-06T03:44:04;5.82;;;2.75;;
77158;SDS011;66129;45.890;13.714;2024-01-06T03:46:30;8.30;;;3.63;;
77158;SDS011;66129;45.890;13.714;2024-01-06T03:48:55;8.27;;;3.45;;
77158;SDS011;66129;45.890;13.714;2024-01-06T03:51:21;9.10;;;3.67;;
77158;SDS011;66129;45.890;13.714;2024-01-06T03:53:47;8.25;;;3.65;;
77158;SDS011;66129;45.890;13.714;2024-01-06T03:56:12;4.38;;;3.03;;
77158;SDS011;66129;45.890;13.714;2024-01-06T03:58:38;6.75;;;3.70;;
77158;SDS011;66129;45.890;13.714;2024-01-06T04:01:03;7.15;;;2.90;;
77158;SDS011;66129;45.890;13.714;2024-01-06T04:03:29;8.70;;;3.30;;
77158;SDS011;66129;45.890;13.714;2024-01-06T04:05:54;6.53;;;3.08;;
77158;SDS011;66129;45.890;13.714;2024-01-06T04:08:20;6.70;;;3.33;;
77158;SDS011;66129;45.890;13.714;2024-01-06T04:10:45;8.88;;;3.30;;
77158;SDS011;66129;45.890;13.714;2024-01-06T04:13:11;6.30;;;3.10;;
77158;SDS011;66129;45.890;13.714;2024-01-06T04:15:37;10.18;;;3.55;;
77158;SDS011;66129;45.890;13.714;2024-01-06T04:18:03;8.02;;;3.30;;
77158;SDS011;66129;45.890;13.714;2024-01-06T04:20:29;8.57;;;3.47;;
77158;SDS011;66129;45.890;13.714;2024-01-06T04:22:55;6.10;;;3.28;;
77158;SDS011;66129;45.890;13.714;2024-01-06T04:25:20;5.03;;;2.78;;
77158;SDS011;66129;45.890;13.714;2024-01-06T04:27:46;10.32;;;3.90;;
77158;SDS011;66129;45.890;13.714;2024-01-06T04:30:13;6.80;;;3.13;;
77158;SDS011;66129;45.890;13.714;2024-01-06T04:32:39;8.52;;;3.03;;
77158;SDS011;66129;45.890;13.714;2024-01-06T04:35:05;7.30;;;3.17;;
77158;SDS011;66129;45.890;13.714;2024-01-06T04:37:31;8.15;;;3.35;;
77158;SDS011;66129;45.890;13.714;2024-01-06T04:39:57;6.47;;;2.58;;
77158;SDS011;66129;45.890;13.714;2024-01-06T04:42:22;5.90;;;3.22;;
77158;SDS011;66129;45.890;13.714;2024-01-06T04:44:50;5.88;;;3.10;;
77158;SDS011;66129;45.890;13.714;2024-01-06T04:47:16;7.90;;;3.75;;
77158;SDS011;66129;45.890;13.714;2024-01-06T04:49:42;9.55;;;2.97;;
77158;SDS011;66129;45.890;13.714;2024-01-06T04:52:07;7.68;;;2.72;;
77158;SDS011;66129;45.890;13.714;2024-01-06T04:54:33;5.72;;;3.50;;
77158;SDS011;66129;45.890;13.714;2024-01-06T04:56:58;8.15;;;2.67;;
77158;SDS011;66129;45.890;13.714;2024-01-06T04:59:24;6.03;;;2.53;;
77158;SDS011;66129;45.890;13.714;2024-01-06T05:01:53;6.35;;;2.55;;
77158;SDS011;66129;45.890;13.714;2024-01-06T05:04:19;8.00;;;3.05;;
77158;SDS011;66129;45.890;13.714;2024-01-06T05:06:44;5.15;;;2.90;;
77158;SDS011;66129;45.890;13.714;2024-01-06T05:09:10;6.00;;;2.95;;
77158;SDS011;66129;45.890;13.714;2024-01-06T05:11:36;8.35;;;3.42;;
77158;SDS011;66129;45.890;13.714;2024-01-06T05:14:01;6.45;;;2.50;;
77158;SDS011;66129;45.890;13.714;2024-01-06T05:16:27;5.18;;;3.28;;
77158;SDS011;66129;45.890;13.714;2024-01-06T05:18:53;4.78;;;2.83;;
77158;SDS011;66129;45.890;13.714;2024-01-06T05:21:18;6.47;;;3.38;;
77158;SDS011;66129;45.890;13.714;2024-01-06T05:23:44;3.55;;;2.40;;
77158;SDS011;66129;45.890;13.714;2024-01-06T05:26:10;6.55;;;3.55;;
77158;SDS011;66129;45.890;13.714;2024-01-06T05:28:36;8.23;;;3.45;;
77158;SDS011;66129;45.890;13.714;2024-01-06T05:31:02;7.25;;;2.90;;
77158;SDS011;66129;45.890;13.714;2024-01-06T05:33:27;8.63;;;3.30;;
77158;SDS011;66129;45.890;13.714;2024-01-06T05:35:53;4.43;;;2.70;;
77158;SDS011;66129;45.890;13.714;2024-01-06T05:38:19;6.93;;;2.50;;
77158;SDS011;66129;45.890;13.714;2024-01-06T05:40:44;5.25;;;3.00;;
77158;SDS011;66129;45.890;13.714;2024-01-06T05:43:10;6.90;;;3.40;;
77158;SDS011;66129;45.890;13.714;2024-01-06T05:45:35;7.28;;;3.85;;
77158;SDS011;66129;45.890;13.714;2024-01-06T05:48:02;8.73;;;3.70;;
77158;SDS011;66129;45.890;13.714;2024-01-06T05:50:28;9.48;;;3.47;;
77158;SDS011;66129;45.890;13.714;2024-01-06T05:52:53;7.07;;;3.78;;
77158;SDS011;66129;45.890;13.714;2024-01-06T05:55:19;12.68;;;5.38;;
77158;SDS011;66129;45.890;13.714;2024-01-06T05:57:44;7.25;;;3.58;;
77158;SDS011;66129;45.890;13.714;2024-01-06T06:00:10;10.48;;;3.65;;
77158;SDS011;66129;45.890;13.714;2024-01-06T06:02:36;6.07;;;3.17;;
77158;SDS011;66129;45.890;13.714;2024-01-06T06:05:02;7.95;;;4.97;;
77158;SDS011;66129;45.890;13.714;2024-01-06T06:07:27;7.50;;;4.85;;
77158;SDS011;66129;45.890;13.714;2024-01-06T06:09:53;6.82;;;3.90;;
77158;SDS011;66129;45.890;13.714;2024-01-06T06:12:19;9.15;;;3.25;;
77158;SDS011;66129;45.890;13.714;2024-01-06T06:14:44;8.48;;;3.72;;
77158;SDS011;66129;45.890;13.714;2024-01-06T06:17:10;12.02;;;4.72;;
77158;SDS011;66129;45.890;13.714;2024-01-06T06:19:35;5.63;;;3.08;;
77158;SDS011;66129;45.890;13.714;2024-01-06T06:22:01;11.05;;;4.47;;
77158;SDS011;66129;45.890;13.714;2024-01-06T06:24:26;8.90;;;5.35;;
77158;SDS011;66129;45.890;13.714;2024-01-06T06:26:52;7.70;;;3.95;;
77158;SDS011;66129;45.890;13.714;2024-01-06T06:29:17;14.07;;;4.55;;
77158;SDS011;66129;45.890;13.714;2024-01-06T06:31:43;4.22;;;2.97;;
77158;SDS011;66129;45.890;13.714;2024-01-06T06:34:10;13.93;;;4.45;;
77158;SDS011;66129;45.890;13.714;2024-01-06T06:36:35;9.88;;;3.15;;
77158;SDS011;66129;45.890;13.714;2024-01-06T06:39:01;6.35;;;4.22;;
77158;SDS011;66129;45.890;13.714;2024-01-06T06:41:29;8.13;;;4.43;;
77158;SDS011;66129;45.890;13.714;2024-01-06T06:43:55;6.13;;;3.50;;
77158;SDS011;66129;45.890;13.714;2024-01-06T06:46:22;5.82;;;3.45;;
77158;SDS011;66129;45.890;13.714;2024-01-06T06:48:49;4.63;;;3.20;;
77158;SDS011;66129;45.890;13.714;2024-01-06T06:51:15;5.78;;;3.92;;
77158;SDS011;66129;45.890;13.714;2024-01-06T06:53:41;7.15;;;3.38;;
77158;SDS011;66129;45.890;13.714;2024-01-06T06:56:06;6.68;;;3.17;;
77158;SDS011;66129;45.890;13.714;2024-01-06T06:58:32;4.30;;;2.78;;
77158;SDS011;66129;45.890;13.714;2024-01-06T07:00:58;9.15;;;3.85;;
77158;SDS011;66129;45.890;13.714;2024-01-06T07:03:24;5.35;;;3.88;;
77158;SDS011;66129;45.890;13.714;2024-01-06T07:05:49;8.75;;;3.72;;
77158;SDS011;66129;45.890;13.714;2024-01-06T07:08:15;10.70;;;4.30;;
77158;SDS011;66129;45.890;13.714;2024-01-06T07:10:40;5.68;;;3.33;;
77158;SDS011;66129;45.890;13.714;2024-01-06T07:13:06;8.90;;;4.30;;
77158;SDS011;66129;45.890;13.714;2024-01-06T07:15:32;5.85;;;3.17;;
77158;SDS011;66129;45.890;13.714;2024-01-06T07:17:57;6.72;;;3.30;;
77158;SDS011;66129;45.890;13.714;2024-01-06T07:20:23;7.47;;;4.03;;
77158;SDS011;66129;45.890;13.714;2024-01-06T07:22:48;8.07;;;4.78;;
77158;SDS011;66129;45.890;13.714;2024-01-06T07:25:14;9.90;;;4.53;;
77158;SDS011;66129;45.890;13.714;2024-01-06T07:27:39;10.45;;;4.25;;
77158;SDS011;66129;45.890;13.714;2024-01-06T07:30:05;5.55;;;3.90;;
77158;SDS011;66129;45.890;13.714;2024-01-06T07:32:33;8.45;;;4.95;;
77158;SDS011;66129;45.890;13.714;2024-01-06T07:34:58;7.32;;;5.00;;
77158;SDS011;66129;45.890;13.714;2024-01-06T07:37:24;8.80;;;5.85;;
77158;SDS011;66129;45.890;13.714;2024-01-06T07:39:50;6.90;;;4.93;;
77158;SDS011;66129;45.890;13.714;2024-01-06T07:42:16;14.32;;;7.30;;
77158;SDS011;66129;45.890;13.714;2024-01-06T07:44:42;14.60;;;7.35;;
77158;SDS011;66129;45.890;13.714;2024-01-06T07:47:07;14.85;;;7.38;;
77158;SDS011;66129;45.890;13.714;2024-01-06T07:49:33;20.17;;;10.13;;
77158;SDS011;66129;45.890;13.714;2024-01-06T07:51:58;18.20;;;10.00;;
77158;SDS011;66129;45.890;13.714;2024-01-06T07:54:25;12.13;;;7.10;;
77158;SDS011;66129;45.890;13.714;2024-01-06T07:56:50;9.75;;;6.22;;
77158;SDS011;66129;45.890;13.714;2024-01-06T07:59:16;8.88;;;4.38;;
77158;SDS011;66129;45.890;13.714;2024-01-06T08:01:41;9.20;;;4.03;;
77158;SDS011;66129;45.890;13.714;2024-01-06T08:04:08;10.88;;;5.75;;
77158;SDS011;66129;45.890;13.714;2024-01-06T08:06:34;9.50;;;5.45;;
77158;SDS011;66129;45.890;13.714;2024-01-06T08:09:00;11.70;;;6.72;;
77158;SDS011;66129;45.890;13.714;2024-01-06T08:11:26;22.52;;;11.48;;
77158;SDS011;66129;45.890;13.714;2024-01-06T08:13:51;15.27;;;8.25;;
77158;SDS011;66129;45.890;13.714;2024-01-06T08:16:17;16.73;;;10.52;;
77158;SDS011;66129;45.890;13.714;2024-01-06T08:18:43;29.75;;;13.75;;
77158;SDS011;66129;45.890;13.714;2024-01-06T08:21:10;50.17;;;24.58;;
77158;SDS011;66129;45.890;13.714;2024-01-06T08:23:35;39.55;;;21.75;;
77158;SDS011;66129;45.890;13.714;2024-01-06T08:26:01;36.30;;;19.00;;
77158;SDS011;66129;45.890;13.714;2024-01-06T08:28:27;31.63;;;16.38;;
77158;SDS011;66129;45.890;13.714;2024-01-06T08:30:52;22.85;;;11.55;;
77158;SDS011;66129;45.890;13.714;2024-01-06T08:33:18;14.35;;;9.23;;
77158;SDS011;66129;45.890;13.714;2024-01-06T08:35:44;8.15;;;5.82;;
77158;SDS011;66129;45.890;13.714;2024-01-06T08:38:09;15.48;;;8.38;;
77158;SDS011;66129;45.890;13.714;2024-01-06T08:40:35;16.33;;;9.45;;
77158;SDS011;66129;45.890;13.714;2024-01-06T08:43:01;17.40;;;7.45;;
77158;SDS011;66129;45.890;13.714;2024-01-06T08:45:27;12.30;;;5.55;;
77158;SDS011;66129;45.890;13.714;2024-01-06T08:47:52;12.98;;;6.47;;
77158;SDS011;66129;45.890;13.714;2024-01-06T08:50:18;10.63;;;5.90;;
77158;SDS011;66129;45.890;13.714;2024-01-06T08:52:44;14.43;;;8.05;;
77158;SDS011;66129;45.890;13.714;2024-01-06T08:55:09;10.13;;;7.30;;
77158;SDS011;66129;45.890;13.714;2024-01-06T08:57:35;14.80;;;7.70;;
77158;SDS011;66129;45.890;13.714;2024-01-06T09:00:00;8.07;;;4.47;;
77158;SDS011;66129;45.890;13.714;2024-01-06T09:02:26;7.93;;;4.15;;
77158;SDS011;66129;45.890;13.714;2024-01-06T09:04:51;6.53;;;4.47;;
77158;SDS011;66129;45.890;13.714;2024-01-06T09:07:17;7.60;;;4.45;;
77158;SDS011;66129;45.890;13.714;2024-01-06T09:09:42;7.65;;;4.30;;
77158;SDS011;66129;45.890;13.714;2024-01-06T09:12:09;10.25;;;5.13;;
77158;SDS011;66129;45.890;13.714;2024-01-06T09:14:34;8.27;;;5.53;;
77158;SDS011;66129;45.890;13.714;2024-01-06T09:17:00;9.98;;;5.35;;
77158;SDS011;66129;45.890;13.714;2024-01-06T09:19:25;11.98;;;5.70;;
77158;SDS011;66129;45.890;13.714;2024-01-06T09:21:53;11.40;;;6.65;;
77158;SDS011;66129;45.890;13.714;2024-01-06T09:24:19;16.58;;;11.45;;
77158;SDS011;66129;45.890;13.714;2024-01-06T09:26:44;13.48;;;8.20;;
77158;SDS011;66129;45.890;13.714;2024-01-06T09:29:10;13.43;;;8.98;;
77158;SDS011;66129;45.890;13.714;2024-01-06T09:31:35;23.00;;;15.50;;
77158;SDS011;66129;45.890;13.714;2024-01-06T09:34:01;24.27;;;13.82;;
77158;SDS011;66129;45.890;13.714;2024-01-06T09:36:27;20.55;;;11.90;;
77158;SDS011;66129;45.890;13.714;2024-01-06T09:38:53;19.88;;;12.35;;
77158;SDS011;66129;45.890;13.714;2024-01-06T09:41:18;33.17;;;19.05;;
77158;SDS011;66129;45.890;13.714;2024-01-06T09:43:45;21.65;;;14.35;;
77158;SDS011;66129;45.890;13.714;2024-01-06T09:48:52;23.65;;;14.52;;
77158;SDS011;66129;45.890;13.714;2024-01-06T09:51:19;30.10;;;14.77;;
77158;SDS011;66129;45.890;13.714;2024-01-06T09:53:56;17.33;;;10.63;;
77158;SDS011;66129;45.890;13.714;2024-01-06T09:56:24;11.15;;;6.47;;
77158;SDS011;66129;45.890;13.714;2024-01-06T09:58:50;11.25;;;5.47;;
77158;SDS011;66129;45.890;13.714;2024-01-06T10:01:17;12.00;;;6.43;;
77158;SDS011;66129;45.890;13.714;2024-01-06T10:03:43;11.43;;;5.68;;
77158;SDS011;66129;45.890;13.714;2024-01-06T10:06:10;18.52;;;10.50;;
77158;SDS011;66129;45.890;13.714;2024-01-06T10:08:36;10.43;;;5.78;;
77158;SDS011;66129;45.890;13.714;2024-01-06T10:11:01;13.25;;;7.22;;
77158;SDS011;66129;45.890;13.714;2024-01-06T10:13:27;18.73;;;12.75;;
77158;SDS011;66129;45.890;13.714;2024-01-06T10:15:55;26.77;;;12.48;;
77158;SDS011;66129;45.890;13.714;2024-01-06T10:18:21;34.65;;;20.10;;
77158;SDS011;66129;45.890;13.714;2024-01-06T10:20:47;16.42;;;9.05;;
77158;SDS011;66129;45.890;13.714;2024-01-06T10:23:12;16.17;;;8.57;;
77158;SDS011;66129;45.890;13.714;2024-01-06T10:25:38;17.55;;;9.27;;
77158;SDS011;66129;45.890;13.714;2024-01-06T10:28:04;20.02;;;11.77;;
77158;SDS011;66129;45.890;13.714;2024-01-06T10:30:30;15.38;;;11.02;;
77158;SDS011;66129;45.890;13.714;2024-01-06T10:32:55;11.40;;;8.10;;
77158;SDS011;66129;45.890;13.714;2024-01-06T10:35:21;11.80;;;5.45;;
77158;SDS011;66129;45.890;13.714;2024-01-06T10:37:47;6.95;;;5.07;;
77158;SDS011;66129;45.890;13.714;2024-01-06T10:40:14;10.63;;;5.60;;
77158;SDS011;66129;45.890;13.714;2024-01-06T10:42:43;10.45;;;5.95;;
77158;SDS011;66129;45.890;13.714;2024-01-06T10:45:11;9.63;;;5.93;;
77158;SDS011;66129;45.890;13.714;2024-01-06T10:47:37;11.13;;;7.15;;
77158;SDS011;66129;45.890;13.714;2024-01-06T10:50:04;13.23;;;7.47;;
77158;SDS011;66129;45.890;13.714;2024-01-06T10:52:30;10.45;;;6.68;;
77158;SDS011;66129;45.890;13.714;2024-01-06T10:54:56;12.90;;;7.38;;
77158;SDS011;66129;45.890;13.714;2024-01-06T10:57:23;11.05;;;6.40;;
77158;SDS011;66129;45.890;13.714;2024-01-06T10:59:49;32.65;;;19.50;;
77158;SDS011;66129;45.890;13.714;2024-01-06T11:02:17;31.23;;;17.75;;
77158;SDS011;66129;45.890;13.714;2024-01-06T11:04:47;19.63;;;12.70;;
77158;SDS011;66129;45.890;13.714;2024-01-06T11:07:15;16.70;;;10.18;;
77158;SDS011;66129;45.890;13.714;2024-01-06T11:10:05;13.50;;;9.50;;
77158;SDS011;66129;45.890;13.714;2024-01-06T11:12:42;10.88;;;7.68;;
77158;SDS011;66129;45.890;13.714;2024-01-06T11:15:08;18.52;;;9.63;;
77158;SDS011;66129;45.890;13.714;2024-01-06T11:17:50;15.50;;;9.75;;
77158;SDS011;66129;45.890;13.714;2024-01-06T11:20:20;8.45;;;5.20;;
77158;SDS011;66129;45.890;13.714;2024-01-06T11:22:50;5.82;;;3.92;;
77158;SDS011;66129;45.890;13.714;2024-01-06T11:25:17;14.07;;;6.50;;
77158;SDS011;66129;45.890;13.714;2024-01-06T11:27:45;8.75;;;5.63;;
77158;SDS011;66129;45.890;13.714;2024-01-06T11:30:19;8.65;;;4.78;;
77158;SDS011;66129;45.890;13.714;2024-01-06T11:32:45;11.55;;;5.93;;
77158;SDS011;66129;45.890;13.714;2024-01-06T11:35:12;7.75;;;4.80;;
77158;SDS011;66129;45.890;13.714;2024-01-06T11:42:40;10.93;;;5.22;;
77158;SDS011;66129;45.890;13.714;2024-01-06T11:45:07;8.15;;;5.43;;
77158;SDS011;66129;45.890;13.714;2024-01-06T11:47:33;11.35;;;6.00;;
77158;SDS011;66129;45.890;13.714;2024-01-06T11:50:03;23.23;;;10.32;;
77158;SDS011;66129;45.890;13.714;2024-01-06T11:52:30;19.65;;;11.50;;
77158;SDS011;66129;45.890;13.714;2024-01-06T11:54:56;22.27;;;14.05;;
77158;SDS011;66129;45.890;13.714;2024-01-06T11:57:24;33.75;;;18.48;;
77158;SDS011;66129;45.890;13.714;2024-01-06T11:59:50;38.33;;;21.42;;
77158;SDS011;66129;45.890;13.714;2024-01-06T12:02:17;30.65;;;18.10;;
77158;SDS011;66129;45.890;13.714;2024-01-06T12:04:52;29.95;;;19.58;;
77158;SDS011;66129;45.890;13.714;2024-01-06T12:07:19;23.48;;;12.57;;
77158;SDS011;66129;45.890;13.714;2024-01-06T12:09:47;14.32;;;8.98;;
77158;SDS011;66129;45.890;13.714;2024-01-06T12:12:16;14.80;;;8.88;;
77158;SDS011;66129;45.890;13.714;2024-01-06T12:14:42;15.25;;;9.82;;
77158;SDS011;66129;45.890;13.714;2024-01-06T12:17:09;12.70;;;8.10;;
77158;SDS011;66129;45.890;13.714;2024-01-06T12:19:35;9.65;;;5.97;;
77158;SDS011;66129;45.890;13.714;2024-01-06T12:22:01;10.20;;;5.75;;
77158;SDS011;66129;45.890;13.714;2024-01-06T12:24:28;7.40;;;5.40;;
77158;SDS011;66129;45.890;13.714;2024-01-06T12:26:56;8.73;;;5.78;;
77158;SDS011;66129;45.890;13.714;2024-01-06T12:29:25;10.35;;;5.95;;
77158;SDS011;66129;45.890;13.714;2024-01-06T12:31:53;10.73;;;6.25;;
77158;SDS011;66129;45.890;13.714;2024-01-06T12:34:20;10.70;;;8.07;;
77158;SDS011;66129;45.890;13.714;2024-01-06T12:36:45;9.02;;;5.45;;
77158;SDS011;66129;45.890;13.714;2024-01-06T12:39:12;8.30;;;4.95;;
77158;SDS011;66129;45.890;13.714;2024-01-06T12:41:39;4.05;;;2.22;;
77158;SDS011;66129;45.890;13.714;2024-01-06T12:44:08;1.67;;;1.17;;
77158;SDS011;66129;45.890;13.714;2024-01-06T12:46:34;1.92;;;1.17;;
77158;SDS011;66129;45.890;13.714;2024-01-06T12:49:00;3.47;;;1.02;;
77158;SDS011;66129;45.890;13.714;2024-01-06T12:51:27;2.88;;;1.40;;
77158;SDS011;66129;45.890;13.714;2024-01-06T12:53:53;1.60;;;1.20;;
77158;SDS011;66129;45.890;13.714;2024-01-06T12:56:18;1.45;;;0.80;;
77158;SDS011;66129;45.890;13.714;2024-01-06T12:58:44;1.58;;;0.65;;
77158;SDS011;66129;45.890;13.714;2024-01-06T13:01:10;0.77;;;0.40;;
77158;SDS011;66129;45.890;13.714;2024-01-06T13:03:35;1.33;;;0.90;;
77158;SDS011;66129;45.890;13.714;2024-01-06T13:06:01;1.20;;;0.77;;
77158;SDS011;66129;45.890;13.714;2024-01-06T13:08:27;2.47;;;1.00;;
77158;SDS011;66129;45.890;13.714;2024-01-06T13:10:55;4.13;;;0.73;;
77158;SDS011;66129;45.890;13.714;2024-01-06T13:13:21;0.70;;;0.60;;
77158;SDS011;66129;45.890;13.714;2024-01-06T13:15:47;1.35;;;1.10;;
77158;SDS011;66129;45.890;13.714;2024-01-06T13:18:16;1.85;;;0.95;;
77158;SDS011;66129;45.890;13.714;2024-01-06T13:20:46;3.47;;;0.63;;
77158;SDS011;66129;45.890;13.714;2024-01-06T13:23:15;0.80;;;0.52;;
77158;SDS011;66129;45.890;13.714;2024-01-06T13:25:41;5.32;;;2.83;;
77158;SDS011;66129;45.890;13.714;2024-01-06T13:28:07;1.55;;;1.10;;
77158;SDS011;66129;45.890;13.714;2024-01-06T13:30:33;2.92;;;1.80;;
77158;SDS011;66129;45.890;13.714;2024-01-06T13:32:59;5.75;;;2.67;;
77158;SDS011;66129;45.890;13.714;2024-01-06T13:35:25;2.95;;;1.80;;
77158;SDS011;66129;45.890;13.714;2024-01-06T13:37:51;1.92;;;0.90;;
77158;SDS011;66129;45.890;13.714;2024-01-06T13:40:17;2.00;;;1.33;;
77158;SDS011;66129;45.890;13.714;2024-01-06T13:42:50;5.00;;;2.55;;
77158;SDS011;66129;45.890;13.714;2024-01-06T13:45:16;3.83;;;1.75;;
77158;SDS011;66129;45.890;13.714;2024-01-06T13:47:42;7.95;;;3.83;;
77158;SDS011;66129;45.890;13.714;2024-01-06T13:50:10;7.82;;;3.17;;
77158;SDS011;66129;45.890;13.714;2024-01-06T13:52:37;6.63;;;3.42;;
77158;SDS011;66129;45.890;13.714;2024-01-06T13:55:02;3.55;;;2.70;;
77158;SDS011;66129;45.890;13.714;2024-01-06T13:57:31;4.57;;;2.55;;
77158;SDS011;66129;45.890;13.714;2024-01-06T13:59:57;3.10;;;1.98;;
77158;SDS011;66129;45.890;13.714;2024-01-06T14:02:23;3.35;;;2.28;;
77158;SDS011;66129;45.890;13.714;2024-01-06T14:04:49;4.57;;;2.40;;
77158;SDS011;66129;45.890;13.714;2024-01-06T14:07:16;5.00;;;2.42;;
77158;SDS011;66129;45.890;13.714;2024-01-06T14:09:47;2.45;;;1.40;;
77158;SDS011;66129;45.890;13.714;2024-01-06T14:12:13;1.15;;;0.90;;
77158;SDS011;66129;45.890;13.714;2024-01-06T14:14:39;1.80;;;1.00;;
77158;SDS011;66129;45.890;13.714;2024-01-06T14:17:07;0.77;;;0.65;;
77158;SDS011;66129;45.890;13.714;2024-01-06T14:19:33;0.47;;;0.45;;
77158;SDS011;66129;45.890;13.714;2024-01-06T14:21:59;2.25;;;0.63;;
77158;SDS011;66129;45.890;13.714;2024-01-06T14:24:24;0.60;;;0.40;;
77158;SDS011;66129;45.890;13.714;2024-01-06T14:26:51;0.50;;;0.50;;
77158;SDS011;66129;45.890;13.714;2024-01-06T14:29:20;1.25;;;0.80;;